createdAt,value
2022-08-29T00:01:01.763Z,19.58
2022-08-29T00:03:28.874Z,19.27
2022-08-29T00:05:56.265Z,19.25
2022-08-29T00:08:24.028Z,19.09
2022-08-29T00:10:50.530Z,19.17
2022-08-29T00:13:17.334Z,19.06
2022-08-29T00:15:45.145Z,19.00
2022-08-29T00:18:16.270Z,18.79
2022-08-29T00:20:44.034Z,18.79
2022-08-29T00:23:11.205Z,18.79
2022-08-29T00:25:37.830Z,18.80
2022-08-29T00:28:04.726Z,18.76
2022-08-29T00:30:32.521Z,18.97
2022-08-29T00:32:59.177Z,19.00
2022-08-29T00:35:37.035Z,19.05
2022-08-29T00:38:05.873Z,18.67
2022-08-29T00:40:39.082Z,18.76
2022-08-29T00:43:06.686Z,18.78
2022-08-29T00:45:33.782Z,18.52
2022-08-29T00:48:05.587Z,18.54
2022-08-29T00:50:35.648Z,18.58
2022-08-29T00:53:05.762Z,18.57
2022-08-29T00:55:34.465Z,18.70
2022-08-29T00:58:04.885Z,18.64
2022-08-29T01:00:32.158Z,18.77
2022-08-29T01:02:58.728Z,18.80
2022-08-29T01:05:25.657Z,18.82
2022-08-29T01:07:52.470Z,18.84
2022-08-29T01:10:38.610Z,18.83
2022-08-29T01:13:05.819Z,18.85
2022-08-29T01:15:33.734Z,18.70
2022-08-29T01:18:01.220Z,18.74
2022-08-29T01:20:40.416Z,18.68
2022-08-29T01:23:13.755Z,18.72
2022-08-29T01:25:46.476Z,18.66
2022-08-29T01:28:20.158Z,18.81
2022-08-29T01:31:14.346Z,18.97
2022-08-29T01:33:59.411Z,18.71
2022-08-29T01:36:32.285Z,18.69
2022-08-29T01:38:59.942Z,18.74
2022-08-29T01:41:27.087Z,18.72
2022-08-29T01:43:55.746Z,18.71
2022-08-29T01:46:31.689Z,18.52
2022-08-29T01:48:58.619Z,18.55
2022-08-29T01:51:25.667Z,18.59
2022-08-29T01:53:53.153Z,18.57
2022-08-29T01:56:24.245Z,18.89
2022-08-29T01:58:52.040Z,18.48
2022-08-29T02:01:23.981Z,18.56
2022-08-29T02:03:52.205Z,18.49
2022-08-29T02:06:18.972Z,18.33
2022-08-29T02:08:46.209Z,18.26
2022-08-29T02:11:13.796Z,18.03
2022-08-29T02:13:45.873Z,18.34
2022-08-29T02:16:13.328Z,18.04
2022-08-29T02:18:42.278Z,18.02
2022-08-29T02:21:11.494Z,17.88
2022-08-29T02:23:38.657Z,18.23
2022-08-29T02:26:05.932Z,18.26
2022-08-29T02:28:33.586Z,18.15
2022-08-29T02:31:00.162Z,18.18
2022-08-29T02:33:26.878Z,18.14
2022-08-29T02:35:55.511Z,17.92
2022-08-29T02:38:22.882Z,18.04
2022-08-29T02:40:50.169Z,17.87
2022-08-29T02:43:18.189Z,18.07
2022-08-29T02:45:45.042Z,17.58
2022-08-29T02:48:12.447Z,17.72
2022-08-29T02:50:47.546Z,17.75
2022-08-29T02:53:19.002Z,17.74
2022-08-29T02:55:49.003Z,17.82
2022-08-29T02:58:16.037Z,18.07
2022-08-29T03:00:42.938Z,17.66
2022-08-29T03:03:09.826Z,17.97
2022-08-29T03:05:37.269Z,18.19
2022-08-29T03:08:11.237Z,17.80
2022-08-29T03:10:38.075Z,18.15
2022-08-29T03:13:05.901Z,18.01
2022-08-29T03:15:32.497Z,18.44
2022-08-29T03:17:59.163Z,18.34
2022-08-29T03:20:25.999Z,18.11
2022-08-29T03:22:54.187Z,17.78
2022-08-29T03:25:21.958Z,18.14
2022-08-29T03:27:48.616Z,18.34
2022-08-29T03:30:16.765Z,17.66
2022-08-29T03:32:43.297Z,17.85
2022-08-29T03:35:11.191Z,18.07
2022-08-29T03:37:38.200Z,18.25
2022-08-29T03:40:06.372Z,18.31
2022-08-29T03:42:32.890Z,18.57
2022-08-29T03:45:02.866Z,18.30
2022-08-29T03:47:29.376Z,18.36
2022-08-29T03:49:55.892Z,18.17
2022-08-29T03:52:22.383Z,17.98
2022-08-29T03:54:48.854Z,18.37
2022-08-29T03:57:15.430Z,18.59
2022-08-29T03:59:43.011Z,18.04
2022-08-29T04:02:10.021Z,17.69
2022-08-29T04:04:55.261Z,18.09
2022-08-29T04:07:21.736Z,18.25
2022-08-29T04:09:48.481Z,18.54
2022-08-29T04:12:15.263Z,18.52
2022-08-29T04:14:42.759Z,18.41
2022-08-29T04:17:12.484Z,18.24
2022-08-29T04:19:39.711Z,18.01
2022-08-29T04:22:06.962Z,17.90
2022-08-29T04:24:34.567Z,18.41
2022-08-29T04:27:01.378Z,18.29
2022-08-29T04:29:27.982Z,17.89
2022-08-29T04:31:54.558Z,17.92
2022-08-29T04:34:21.481Z,17.93
2022-08-29T04:36:48.309Z,17.77
2022-08-29T04:39:15.082Z,17.98
2022-08-29T04:41:42.438Z,17.74
2022-08-29T04:44:11.238Z,17.64
2022-08-29T04:46:38.749Z,17.72
2022-08-29T04:49:05.462Z,17.55
2022-08-29T04:51:34.526Z,17.70
2022-08-29T04:54:01.171Z,17.79
2022-08-29T04:56:27.719Z,17.68
2022-08-29T04:58:56.316Z,17.38
2022-08-29T05:01:26.815Z,17.59
2022-08-29T05:03:55.156Z,17.75
2022-08-29T05:06:23.171Z,17.56
2022-08-29T05:08:55.034Z,17.61
2022-08-29T05:11:28.606Z,17.66
2022-08-29T05:13:55.145Z,17.38
2022-08-29T05:16:21.815Z,17.06
2022-08-29T05:18:48.531Z,17.79
2022-08-29T05:21:39.320Z,17.33
2022-08-29T05:24:31.422Z,17.55
2022-08-29T05:27:32.615Z,17.81
2022-08-29T05:29:59.542Z,18.03
2022-08-29T05:32:26.113Z,17.44
2022-08-29T05:34:52.706Z,17.70
2022-08-29T05:37:20.873Z,17.48
2022-08-29T05:39:47.950Z,17.78
2022-08-29T05:42:17.064Z,17.66
2022-08-29T05:44:43.747Z,17.66
2022-08-29T05:47:12.690Z,17.74
2022-08-29T05:49:41.265Z,17.87
2022-08-29T05:52:08.169Z,17.58
2022-08-29T05:54:36.612Z,17.59
2022-08-29T05:57:03.648Z,17.76
2022-08-29T05:59:30.170Z,18.00
2022-08-29T06:01:56.901Z,17.82
2022-08-29T06:04:23.444Z,18.32
2022-08-29T06:06:50.866Z,17.73
2022-08-29T06:09:17.556Z,17.99
2022-08-29T06:11:48.073Z,18.52
2022-08-29T06:14:15.511Z,18.01
2022-08-29T06:16:42.477Z,18.12
2022-08-29T06:19:09.578Z,18.56
2022-08-29T06:21:36.174Z,18.65
2022-08-29T06:24:02.931Z,18.60
2022-08-29T06:26:31.494Z,18.99
2022-08-29T06:28:58.053Z,18.72
2022-08-29T06:31:28.141Z,18.42
2022-08-29T06:34:01.355Z,18.59
2022-08-29T06:36:29.062Z,18.58
2022-08-29T06:38:57.374Z,18.31
2022-08-29T06:41:25.066Z,18.58
2022-08-29T06:43:52.433Z,18.40
2022-08-29T06:46:23.729Z,18.52
2022-08-29T06:48:50.926Z,18.66
2022-08-29T06:51:17.634Z,18.39
2022-08-29T06:53:44.477Z,19.14
2022-08-29T06:56:11.562Z,19.19
2022-08-29T06:58:38.812Z,19.19
2022-08-29T07:01:17.360Z,19.19
2022-08-29T07:03:44.002Z,19.63
2022-08-29T07:06:11.369Z,19.68
2022-08-29T07:08:43.651Z,19.70
2022-08-29T07:11:22.106Z,19.72
2022-08-29T07:13:48.618Z,19.40
2022-08-29T07:16:16.957Z,19.81
2022-08-29T07:18:46.123Z,19.86
2022-08-29T07:21:20.138Z,19.51
2022-08-29T07:23:47.408Z,19.35
2022-08-29T07:26:17.803Z,19.37
2022-08-29T07:28:47.362Z,19.31
2022-08-29T07:31:14.390Z,19.15
2022-08-29T07:33:41.022Z,19.33
2022-08-29T07:36:07.866Z,19.97
2022-08-29T07:38:34.718Z,19.56
2022-08-29T07:41:06.208Z,19.26
2022-08-29T07:43:33.454Z,19.26
2022-08-29T07:46:21.513Z,19.20
2022-08-29T07:48:48.637Z,19.53
2022-08-29T07:51:18.034Z,19.78
2022-08-29T07:53:45.562Z,19.46
2022-08-29T07:56:18.401Z,19.93
2022-08-29T07:58:45.233Z,20.27
2022-08-29T08:01:21.319Z,19.40
2022-08-29T08:03:50.163Z,19.59
2022-08-29T08:06:18.183Z,19.69
2022-08-29T08:08:44.791Z,20.21
2022-08-29T08:11:11.371Z,19.49
2022-08-29T08:13:38.153Z,20.52
2022-08-29T08:16:16.706Z,21.23
2022-08-29T08:18:44.236Z,20.82
2022-08-29T08:21:11.584Z,20.31
2022-08-29T08:23:38.954Z,20.27
2022-08-29T08:26:06.215Z,20.43
2022-08-29T08:28:32.836Z,20.21
2022-08-29T08:31:05.068Z,21.00
2022-08-29T08:33:34.961Z,20.64
2022-08-29T08:36:01.865Z,19.93
2022-08-29T08:38:28.414Z,20.16
2022-08-29T08:41:01.179Z,20.62
2022-08-29T08:43:37.759Z,21.22
2022-08-29T08:46:04.361Z,20.30
2022-08-29T08:48:37.246Z,20.46
2022-08-29T08:51:07.880Z,20.99
2022-08-29T08:53:45.995Z,20.50
2022-08-29T08:56:35.662Z,21.04
2022-08-29T08:59:30.030Z,21.17
2022-08-29T09:02:08.864Z,21.33
2022-08-29T09:04:57.861Z,20.48
2022-08-29T09:07:55.933Z,20.94
2022-08-29T09:10:42.952Z,21.18
2022-08-29T09:13:26.263Z,21.72
2022-08-29T09:15:54.967Z,21.62
2022-08-29T09:18:30.635Z,21.40
2022-08-29T09:20:57.474Z,21.51
2022-08-29T09:23:39.874Z,21.37
2022-08-29T09:26:06.759Z,21.22
2022-08-29T09:28:34.925Z,21.35
2022-08-29T09:31:32.421Z,20.97
2022-08-29T09:34:11.912Z,21.08
2022-08-29T09:36:40.025Z,21.21
2022-08-29T09:39:22.297Z,21.40
2022-08-29T09:41:54.838Z,21.94
2022-08-29T09:44:31.575Z,21.33
2022-08-29T09:47:06.743Z,21.49
2022-08-29T09:49:33.984Z,21.30
2022-08-29T09:52:11.330Z,20.98
2022-08-29T09:54:38.311Z,20.75
2022-08-29T09:57:07.871Z,20.91
2022-08-29T09:59:40.724Z,20.91
2022-08-29T10:02:22.890Z,20.97
2022-08-29T10:04:52.772Z,21.17
2022-08-29T10:07:23.170Z,21.71
2022-08-29T10:10:20.406Z,21.47
2022-08-29T10:13:09.284Z,21.25
2022-08-29T10:15:50.920Z,21.46
2022-08-29T10:18:39.733Z,21.43
2022-08-29T10:21:24.966Z,21.06
2022-08-29T10:23:59.702Z,21.62
2022-08-29T10:26:41.549Z,21.87
2022-08-29T10:29:17.932Z,21.84
2022-08-29T10:31:56.764Z,21.73
2022-08-29T10:34:44.185Z,21.68
2022-08-29T10:37:47.788Z,21.39
2022-08-29T10:40:47.279Z,20.52
2022-08-29T10:43:20.037Z,20.75
2022-08-29T10:46:11.540Z,20.51
2022-08-29T10:48:46.582Z,20.77
2022-08-29T10:51:30.518Z,21.03
2022-08-29T10:54:05.293Z,20.91
2022-08-29T10:56:38.593Z,20.66
2022-08-29T10:59:34.353Z,20.78
2022-08-29T11:02:24.775Z,20.77
2022-08-29T11:04:55.147Z,21.30
2022-08-29T11:07:32.189Z,20.85
2022-08-29T11:10:05.578Z,20.73
2022-08-29T11:12:45.270Z,20.75
2022-08-29T11:15:33.871Z,20.84
2022-08-29T11:18:23.577Z,20.82
2022-08-29T11:21:01.121Z,21.03
2022-08-29T11:23:41.333Z,20.91
2022-08-29T11:26:40.698Z,20.98
2022-08-29T11:29:21.382Z,21.05
2022-08-29T11:32:27.155Z,21.06
2022-08-29T11:35:32.012Z,20.73
2022-08-29T11:38:04.434Z,20.74
2022-08-29T11:40:47.869Z,20.59
2022-08-29T11:43:18.689Z,20.42
2022-08-29T11:45:56.111Z,20.67
2022-08-29T11:48:34.658Z,21.18
2022-08-29T11:51:29.001Z,21.63
2022-08-29T11:53:56.007Z,21.39
2022-08-29T11:56:28.374Z,21.35
2022-08-29T11:58:57.251Z,20.93
2022-08-29T12:01:35.977Z,20.44
2022-08-29T12:04:05.015Z,20.84
2022-08-29T12:06:38.100Z,20.69
2022-08-29T12:09:13.325Z,20.18
2022-08-29T12:11:58.969Z,20.07
2022-08-29T12:14:44.846Z,20.47
2022-08-29T12:17:17.419Z,20.50
2022-08-29T12:19:48.449Z,20.16
2022-08-29T12:22:52.109Z,20.27
2022-08-29T12:25:27.666Z,20.45
2022-08-29T12:28:01.080Z,20.37
2022-08-29T12:30:31.119Z,20.63
2022-08-29T12:33:04.159Z,20.96
2022-08-29T12:35:46.670Z,20.74
2022-08-29T12:38:34.782Z,21.17
2022-08-29T12:41:15.049Z,21.03
2022-08-29T12:43:43.887Z,20.59
2022-08-29T12:46:24.206Z,20.97
2022-08-29T12:48:57.794Z,20.92
2022-08-29T12:51:37.983Z,21.19
2022-08-29T12:54:05.107Z,21.36
2022-08-29T12:56:32.581Z,21.40
2022-08-29T12:59:01.332Z,21.40
2022-08-29T13:01:32.626Z,20.49
2022-08-29T13:04:09.954Z,20.63
2022-08-29T13:06:37.177Z,20.55
2022-08-29T13:09:06.125Z,20.25
2022-08-29T13:11:33.539Z,20.06
2022-08-29T13:14:05.586Z,20.21
2022-08-29T13:16:32.902Z,20.23
2022-08-29T13:19:10.812Z,19.96
2022-08-29T13:21:38.165Z,20.06
2022-08-29T13:24:11.060Z,20.11
2022-08-29T13:26:50.455Z,20.22
2022-08-29T13:29:41.994Z,20.21
2022-08-29T13:32:18.908Z,20.81
2022-08-29T13:35:12.973Z,21.09
2022-08-29T13:37:42.162Z,21.03
2022-08-29T13:40:53.765Z,20.93
2022-08-29T13:43:29.480Z,21.17
2022-08-29T13:46:06.205Z,21.50
2022-08-29T13:48:33.232Z,21.73
2022-08-29T13:51:04.732Z,21.85
2022-08-29T13:53:33.651Z,21.52
2022-08-29T13:56:01.483Z,20.95
2022-08-29T13:58:29.564Z,20.87
2022-08-29T14:00:57.141Z,20.81
2022-08-29T14:03:24.727Z,21.11
2022-08-29T14:05:56.364Z,20.91
2022-08-29T14:08:24.538Z,20.92
2022-08-29T14:10:51.803Z,20.58
2022-08-29T14:13:18.379Z,20.94
2022-08-29T14:15:44.947Z,21.03
2022-08-29T14:18:11.893Z,20.53
2022-08-29T14:20:39.098Z,21.19
2022-08-29T14:23:05.850Z,21.45
2022-08-29T14:25:32.378Z,21.60
2022-08-29T14:27:58.883Z,21.16
2022-08-29T14:30:25.651Z,21.35
2022-08-29T14:32:52.211Z,20.87
2022-08-29T14:35:26.824Z,20.94
2022-08-29T14:37:59.584Z,20.64
2022-08-29T14:40:26.262Z,20.76
2022-08-29T14:42:55.737Z,21.15
2022-08-29T14:45:22.274Z,21.16
2022-08-29T14:47:48.819Z,21.30
2022-08-29T14:50:15.722Z,21.12
2022-08-29T14:52:42.310Z,21.65
2022-08-29T14:55:09.221Z,21.75
2022-08-29T14:57:36.071Z,21.67
2022-08-29T15:00:07.802Z,22.07
2022-08-29T15:02:34.412Z,22.37
2022-08-29T15:05:00.939Z,22.01
2022-08-29T15:07:27.719Z,21.76
2022-08-29T15:09:54.290Z,21.40
2022-08-29T15:12:21.721Z,21.45
2022-08-29T15:14:48.384Z,21.35
2022-08-29T15:17:15.000Z,21.20
2022-08-29T15:22:39.114Z,20.98
2022-08-29T15:25:08.162Z,20.86
2022-08-29T15:27:40.363Z,21.25
2022-08-29T15:30:08.867Z,21.30
2022-08-29T15:32:38.648Z,20.82
2022-08-29T15:35:22.507Z,21.06
2022-08-29T15:37:54.974Z,21.04
2022-08-29T15:40:22.307Z,21.39
2022-08-29T15:42:49.025Z,21.13
2022-08-29T15:48:36.216Z,20.96
2022-08-29T15:51:03.541Z,21.59
2022-08-29T15:53:30.091Z,21.72
2022-08-29T15:55:56.672Z,21.34
2022-08-29T15:58:23.249Z,21.78
2022-08-29T16:00:49.833Z,21.77
2022-08-29T16:03:16.660Z,21.37
2022-08-29T16:05:43.837Z,21.49
2022-08-29T16:08:16.629Z,21.45
2022-08-29T16:10:45.847Z,22.18
2022-08-29T16:13:12.648Z,22.42
2022-08-29T16:15:39.232Z,21.74
2022-08-29T16:18:06.770Z,21.26
2022-08-29T16:20:34.106Z,21.12
2022-08-29T16:23:01.262Z,21.18
2022-08-29T16:25:28.758Z,21.08
2022-08-29T16:27:55.449Z,20.78
2022-08-29T16:30:22.240Z,20.85
2022-08-29T16:32:49.924Z,21.06
2022-08-29T16:35:17.143Z,20.66
2022-08-29T16:37:45.032Z,20.86
2022-08-29T16:40:15.341Z,21.16
2022-08-29T16:42:42.267Z,21.54
2022-08-29T16:45:22.209Z,21.93
2022-08-29T16:47:48.769Z,21.86
2022-08-29T16:50:15.300Z,21.64
2022-08-29T16:52:41.905Z,20.92
2022-08-29T16:55:08.997Z,20.56
2022-08-29T16:57:35.730Z,20.12
2022-08-29T17:00:04.764Z,20.06
2022-08-29T17:02:31.385Z,20.19
2022-08-29T17:04:57.961Z,20.77
2022-08-29T17:07:32.430Z,20.87
2022-08-29T17:10:00.702Z,20.65
2022-08-29T17:12:28.958Z,20.61
2022-08-29T17:14:56.127Z,20.79
2022-08-29T17:17:22.625Z,20.41
2022-08-29T17:19:49.121Z,20.19
2022-08-29T17:22:15.985Z,20.17
2022-08-29T17:24:43.927Z,20.14
2022-08-29T17:27:10.698Z,20.20
2022-08-29T17:29:42.122Z,20.25
2022-08-29T17:32:12.110Z,20.03
2022-08-29T17:34:39.750Z,20.26
2022-08-29T17:37:07.258Z,20.11
2022-08-29T17:39:36.900Z,20.00
2022-08-29T17:42:14.299Z,20.27
2022-08-29T17:44:41.036Z,20.26
2022-08-29T17:47:08.192Z,20.39
2022-08-29T17:49:34.749Z,20.34
2022-08-29T17:52:01.558Z,20.16
2022-08-29T17:54:33.203Z,20.41
2022-08-29T17:57:01.763Z,20.65
2022-08-29T17:59:31.300Z,20.26
2022-08-29T18:01:58.711Z,20.21
2022-08-29T18:04:26.879Z,19.65
2022-08-29T18:06:55.148Z,19.63
2022-08-29T18:09:22.896Z,19.74
2022-08-29T18:11:51.328Z,20.07
2022-08-29T18:14:20.535Z,19.90
2022-08-29T18:16:51.824Z,20.12
2022-08-29T18:19:19.141Z,19.97
2022-08-29T18:21:45.893Z,19.84
2022-08-29T18:24:15.195Z,19.83
2022-08-29T18:26:44.524Z,19.86
2022-08-29T18:29:11.140Z,19.70
2022-08-29T18:31:37.944Z,19.96
2022-08-29T18:34:04.686Z,19.85
2022-08-29T18:36:34.041Z,19.66
2022-08-29T18:39:02.397Z,19.72
2022-08-29T18:41:32.428Z,19.52
2022-08-29T18:44:02.084Z,19.42
2022-08-29T18:46:29.005Z,19.69
2022-08-29T18:48:55.634Z,19.71
2022-08-29T18:51:22.261Z,19.78
2022-08-29T18:53:48.840Z,19.87
2022-08-29T18:56:15.968Z,19.86
2022-08-29T18:58:44.425Z,19.60
2022-08-29T19:01:27.640Z,19.65
2022-08-29T19:03:59.391Z,19.29
2022-08-29T19:06:27.416Z,19.49
2022-08-29T19:08:56.629Z,19.57
2022-08-29T19:11:23.591Z,19.48
2022-08-29T19:13:52.459Z,19.54
2022-08-29T19:16:21.018Z,19.74
2022-08-29T19:18:48.226Z,19.41
2022-08-29T19:21:14.906Z,19.66
2022-08-29T19:23:43.992Z,19.80
2022-08-29T19:26:28.700Z,19.74
2022-08-29T19:28:59.028Z,19.80
2022-08-29T19:31:27.788Z,19.78
2022-08-29T19:33:55.041Z,19.74
2022-08-29T19:36:21.878Z,19.82
2022-08-29T19:38:48.493Z,19.49
2022-08-29T19:41:15.674Z,19.47
2022-08-29T19:43:42.551Z,19.17
2022-08-29T19:46:20.794Z,19.34
2022-08-29T19:48:48.644Z,19.38
2022-08-29T19:51:19.754Z,19.51
2022-08-29T19:53:54.396Z,19.25
2022-08-29T19:56:24.471Z,19.20
2022-08-29T19:58:53.985Z,19.17
2022-08-29T20:01:21.230Z,19.06
2022-08-29T20:03:48.058Z,18.84
2022-08-29T20:06:14.688Z,18.66
2022-08-29T20:09:05.291Z,18.70
2022-08-29T20:11:34.142Z,18.76
2022-08-29T20:14:14.154Z,19.00
2022-08-29T20:16:41.963Z,18.52
2022-08-29T20:19:10.690Z,18.47
2022-08-29T20:21:37.518Z,18.20
2022-08-29T20:24:05.118Z,18.16
2022-08-29T20:26:34.830Z,18.02
2022-08-29T20:29:04.714Z,18.03
2022-08-29T20:31:31.567Z,18.19
2022-08-29T20:33:58.270Z,18.13
2022-08-29T20:36:44.035Z,18.04
2022-08-29T20:39:13.284Z,17.97
2022-08-29T20:41:40.264Z,17.96
2022-08-29T20:44:07.837Z,18.01
2022-08-29T20:46:42.592Z,18.04
2022-08-29T20:49:10.905Z,18.13
2022-08-29T20:51:39.026Z,17.94
2022-08-29T20:54:06.693Z,17.63
2022-08-29T20:56:33.347Z,17.66
2022-08-29T20:59:00.102Z,17.77
2022-08-29T21:01:27.827Z,17.70
2022-08-29T21:04:13.358Z,17.78
2022-08-29T21:06:40.068Z,17.54
2022-08-29T21:09:07.766Z,17.75
2022-08-29T21:11:34.997Z,17.51
2022-08-29T21:14:02.198Z,17.56
2022-08-29T21:16:29.715Z,17.50
2022-08-29T21:18:57.102Z,17.24
2022-08-29T21:21:25.058Z,17.37
2022-08-29T21:23:53.686Z,17.29
2022-08-29T21:26:20.650Z,17.15
2022-08-29T21:28:47.375Z,17.10
2022-08-29T21:31:14.141Z,17.06
2022-08-29T21:33:43.885Z,17.00
2022-08-29T21:36:15.894Z,16.83
2022-08-29T21:38:42.470Z,16.92
2022-08-29T21:41:32.721Z,16.80
2022-08-29T21:44:02.589Z,16.75
2022-08-29T22:23:17.999Z,16.52
2022-08-29T22:25:53.825Z,16.67
2022-08-29T22:28:20.724Z,16.45
2022-08-29T22:30:48.708Z,16.35
2022-08-29T22:33:16.385Z,16.23
2022-08-29T22:35:43.494Z,16.35
2022-08-29T22:38:10.005Z,16.35
2022-08-29T22:40:36.567Z,16.33
2022-08-29T22:43:03.284Z,16.14
2022-08-29T22:45:36.939Z,16.14
2022-08-29T22:48:25.223Z,16.08
2022-08-29T23:01:38.108Z,15.69
2022-08-29T23:04:05.470Z,15.85
2022-08-29T23:06:32.243Z,15.78
2022-08-29T23:08:58.867Z,15.81
2022-08-29T23:11:26.649Z,15.82
2022-08-29T23:13:54.626Z,15.72
2022-08-29T23:16:22.565Z,15.64
2022-08-29T23:18:49.229Z,15.69
2022-08-29T23:21:16.130Z,15.59
2022-08-29T23:23:53.458Z,15.49
